Time;durP1;ratioP1;P1;durP2;ratioP2;P2;SDS_P1;SDS_P2;PMS_P1;PMS_P2;Temp;Humidity;BMP_temperature;BMP_pressure;BME280_temperature;BME280_humidity;BME280_pressure;Samples;Min_cycle;Max_cycle;Signal;HPM_P1;HPM_P2
2023/06/06 00:02:29;;;;;;;9.63;8.73;;;;;;;;;;5015027;28;20457;-58
2023/06/06 00:04:57;;;;;;;8.63;7.83;;;;;;;;;;5015114;28;20645;-59
2023/06/06 00:07:23;;;;;;;8.47;7.67;;;;;;;;;;5014545;28;20500;-59
2023/06/06 00:09:49;;;;;;;8.80;7.90;;;;;;;;;;5014506;28;20468;-59
2023/06/06 00:12:15;;;;;;;8.90;8.20;;;;;;;;;;5014015;28;20432;-59
2023/06/06 00:14:42;;;;;;;8.63;6.93;;;;;;;;;;5014247;28;20448;-59
2023/06/06 00:17:09;;;;;;;8.17;7.40;;;;;;;;;;5014422;28;20492;-59
2023/06/06 00:19:42;;;;;;;7.70;7.20;;;;;;;;;;5014253;28;20416;-59
2023/06/06 00:22:09;;;;;;;8.13;7.43;;;;;;;;;;5014323;28;20468;-59
2023/06/06 00:24:35;;;;;;;8.60;7.80;;;;;;;;;;5014178;28;20433;-59
2023/06/06 00:27:01;;;;;;;7.70;7.20;;;;;;;;;;5013002;28;20833;-59
2023/06/06 00:29:27;;;;;;;8.87;7.77;;;;;;;;;;5014266;28;20489;-59
2023/06/06 00:31:56;;;;;;;7.87;7.27;;;;;;;;;;5014393;28;20507;-59
2023/06/06 00:34:22;;;;;;;7.80;7.30;;;;;;;;;;5013925;28;20427;-59
2023/06/06 00:36:48;;;;;;;7.67;7.10;;;;;;;;;;5014011;28;20794;-59
2023/06/06 00:39:14;;;;;;;7.20;6.70;;;;;;;;;;5014051;28;20413;-59
2023/06/06 00:41:42;;;;;;;7.13;6.63;;;;;;;;;;5014064;28;20464;-59
2023/06/06 00:44:08;;;;;;;7.50;6.80;;;;;;;;;;5014117;28;20444;-59
2023/06/06 00:46:35;;;;;;;7.13;6.53;;;;;;;;;;5013838;28;20419;-59
2023/06/06 00:49:01;;;;;;;7.27;6.63;;;;;;;;;;5013690;28;20420;-59
2023/06/06 00:51:27;;;;;;;10.70;6.73;;;;;;;;;;5013540;28;20454;-59
2023/06/06 00:53:55;;;;;;;5.60;5.10;;;;;;;;;;5013625;28;20428;-59
2023/06/06 00:56:22;;;;;;;7.00;6.40;;;;;;;;;;5013731;28;20474;-59
2023/06/06 00:58:50;;;;;;;7.40;6.27;;;;;;;;;;5013665;28;20787;-59
2023/06/06 01:01:19;;;;;;;6.00;5.50;;;;;;;;;;5013313;28;20472;-59
2023/06/06 01:03:46;;;;;;;6.20;5.70;;;;;;;;;;5013545;28;20813;-59
2023/06/06 01:06:13;;;;;;;6.00;5.60;;;;;;;;;;5013302;28;20891;-59
2023/06/06 01:08:39;;;;;;;6.33;5.90;;;;;;;;;;5013150;28;20542;-58
2023/06/06 01:11:09;;;;;;;16.10;6.07;;;;;;;;;;5013607;28;20555;-59
2023/06/06 01:13:35;;;;;;;10.80;5.47;;;;;;;;;;5013424;28;20437;-59
2023/06/06 01:16:10;;;;;;;6.83;5.10;;;;;;;;;;5011499;28;20454;-59
2023/06/06 01:18:37;;;;;;;5.63;5.07;;;;;;;;;;5013339;28;20751;-59
2023/06/06 01:21:04;;;;;;;7.30;6.70;;;;;;;;;;5013185;28;20496;-59
2023/06/06 01:23:31;;;;;;;4.90;4.60;;;;;;;;;;5013346;28;20938;-59
2023/06/06 01:25:57;;;;;;;5.53;5.10;;;;;;;;;;5012086;28;20941;-59
2023/06/06 01:28:25;;;;;;;8.10;5.00;;;;;;;;;;5012041;28;20413;-59
2023/06/06 01:30:51;;;;;;;9.97;6.03;;;;;;;;;;5013079;28;20504;-59
2023/06/06 01:33:22;;;;;;;8.57;5.20;;;;;;;;;;5013548;28;20447;-59
2023/06/06 01:35:58;;;;;;;5.47;4.97;;;;;;;;;;5013198;28;21002;-59
2023/06/06 01:38:26;;;;;;;5.60;5.13;;;;;;;;;;5013235;28;20409;-59
2023/06/06 01:40:53;;;;;;;5.50;5.00;;;;;;;;;;5012734;28;20567;-59
2023/06/06 01:43:20;;;;;;;6.27;5.53;;;;;;;;;;5013128;28;20411;-59
2023/06/06 01:45:47;;;;;;;7.50;5.03;;;;;;;;;;5012999;28;20431;-59
2023/06/06 01:48:13;;;;;;;5.80;5.50;;;;;;;;;;5013115;28;20439;-59
2023/06/06 01:50:39;;;;;;;5.43;5.07;;;;;;;;;;5012838;28;20914;-59
2023/06/06 01:53:05;;;;;;;6.30;5.37;;;;;;;;;;5012772;28;20422;-59
2023/06/06 01:55:31;;;;;;;6.47;5.93;;;;;;;;;;5012895;28;20447;-58
2023/06/06 01:57:58;;;;;;;5.90;5.40;;;;;;;;;;5013065;28;20462;-59
2023/06/06 02:00:24;;;;;;;5.63;5.03;;;;;;;;;;5012766;28;20439;-58
2023/06/06 02:02:50;;;;;;;11.60;5.37;;;;;;;;;;5012745;28;20543;-58
2023/06/06 02:05:16;;;;;;;5.90;5.27;;;;;;;;;;5012792;28;20431;-59
2023/06/06 02:07:42;;;;;;;11.13;5.27;;;;;;;;;;5012625;28;20944;-59
2023/06/06 02:10:09;;;;;;;5.30;4.80;;;;;;;;;;5012642;28;20462;-59
2023/06/06 02:12:37;;;;;;;4.90;4.60;;;;;;;;;;5012657;28;20440;-59
2023/06/06 02:15:06;;;;;;;7.23;4.57;;;;;;;;;;5012673;28;20415;-58
2023/06/06 02:17:32;;;;;;;9.63;5.40;;;;;;;;;;5012725;28;20408;-59
2023/06/06 02:19:58;;;;;;;5.60;4.67;;;;;;;;;;5012530;28;20416;-59
2023/06/06 02:22:27;;;;;;;4.37;4.17;;;;;;;;;;5012485;28;20961;-59
2023/06/06 02:24:54;;;;;;;5.60;5.07;;;;;;;;;;5012704;28;20486;-59
2023/06/06 02:27:21;;;;;;;5.37;4.97;;;;;;;;;;5012705;28;20412;-59
2023/06/06 02:29:47;;;;;;;5.83;4.80;;;;;;;;;;5016386;28;20412;-59
2023/06/06 02:32:13;;;;;;;5.40;5.10;;;;;;;;;;5016554;28;20505;-58
2023/06/06 02:34:39;;;;;;;5.63;5.10;;;;;;;;;;5016480;28;20440;-59
2023/06/06 02:37:08;;;;;;;6.00;5.40;;;;;;;;;;5016275;28;20496;-58
2023/06/06 02:39:35;;;;;;;5.23;4.93;;;;;;;;;;5016325;28;20420;-58
2023/06/06 02:42:01;;;;;;;6.23;5.83;;;;;;;;;;5016133;28;20479;-58
2023/06/06 02:44:27;;;;;;;6.03;5.50;;;;;;;;;;5016270;28;20420;-59
2023/06/06 02:46:53;;;;;;;4.63;4.43;;;;;;;;;;5016206;28;20486;-57
2023/06/06 02:49:20;;;;;;;7.40;4.73;;;;;;;;;;5016146;28;20417;-59
2023/06/06 02:51:48;;;;;;;6.23;5.80;;;;;;;;;;5015959;28;20453;-58
2023/06/06 02:54:15;;;;;;;6.00;5.03;;;;;;;;;;5014743;28;20423;-59
2023/06/06 02:56:41;;;;;;;7.63;6.20;;;;;;;;;;5016034;28;20434;-59
2023/06/06 02:59:09;;;;;;;5.43;5.13;;;;;;;;;;5015988;28;20746;-59
2023/06/06 03:01:36;;;;;;;7.50;5.77;;;;;;;;;;5014908;28;20557;-58
2023/06/06 03:04:03;;;;;;;6.33;5.40;;;;;;;;;;5016197;28;20400;-59
2023/06/06 03:06:28;;;;;;;6.17;5.27;;;;;;;;;;5016039;28;20446;-59
2023/06/06 03:08:57;;;;;;;6.10;5.60;;;;;;;;;;5015964;28;20410;-58
2023/06/06 03:11:23;;;;;;;5.60;5.30;;;;;;;;;;5015678;28;20807;-56
2023/06/06 03:13:49;;;;;;;6.70;5.20;;;;;;;;;;5015646;28;21047;-58
2023/06/06 03:16:16;;;;;;;6.30;5.70;;;;;;;;;;5015691;28;20527;-58
2023/06/06 03:18:46;;;;;;;5.67;5.20;;;;;;;;;;5015688;28;20411;-58
2023/06/06 03:21:15;;;;;;;7.40;5.83;;;;;;;;;;5015581;28;20521;-57
2023/06/06 03:23:41;;;;;;;8.40;6.23;;;;;;;;;;5014229;28;20474;-58
2023/06/06 03:26:07;;;;;;;9.77;5.43;;;;;;;;;;5015454;28;20508;-58
2023/06/06 03:28:35;;;;;;;6.00;5.40;;;;;;;;;;5015428;28;20878;-58
2023/06/06 03:31:09;;;;;;;6.17;5.57;;;;;;;;;;5015376;28;20532;-58
2023/06/06 03:33:37;;;;;;;6.00;5.50;;;;;;;;;;5015276;28;20773;-58
2023/06/06 03:36:06;;;;;;;6.23;5.60;;;;;;;;;;5015352;28;20474;-58
2023/06/06 03:38:32;;;;;;;6.43;5.20;;;;;;;;;;5014909;28;20394;-58
2023/06/06 03:40:58;;;;;;;5.80;5.30;;;;;;;;;;5015045;28;20492;-58
2023/06/06 03:43:24;;;;;;;10.87;6.27;;;;;;;;;;5015162;28;20446;-58
2023/06/06 03:45:52;;;;;;;6.77;5.80;;;;;;;;;;5015098;28;20807;-58
2023/06/06 03:48:18;;;;;;;5.50;5.03;;;;;;;;;;5015260;28;20393;-58
2023/06/06 03:50:46;;;;;;;11.93;5.60;;;;;;;;;;5015015;28;20425;-58
2023/06/06 03:53:12;;;;;;;5.93;5.50;;;;;;;;;;5015217;28;20759;-58
2023/06/06 03:55:38;;;;;;;7.30;5.40;;;;;;;;;;5015073;28;20410;-58
2023/06/06 03:58:04;;;;;;;6.10;5.50;;;;;;;;;;5014815;28;20478;-58
2023/06/06 04:00:31;;;;;;;6.43;5.30;;;;;;;;;;5014871;28;20429;-58
2023/06/06 04:02:57;;;;;;;5.23;4.93;;;;;;;;;;5014660;28;21035;-58
2023/06/06 04:05:23;;;;;;;6.83;5.90;;;;;;;;;;5013542;28;20418;-59
2023/06/06 04:07:49;;;;;;;9.80;5.60;;;;;;;;;;5014719;28;20819;-58
2023/06/06 04:10:19;;;;;;;6.07;5.57;;;;;;;;;;5014722;28;20417;-58
2023/06/06 04:12:44;;;;;;;6.20;5.80;;;;;;;;;;5013963;28;20546;-57
2023/06/06 04:15:10;;;;;;;8.50;5.00;;;;;;;;;;5014432;28;20460;-58
2023/06/06 04:17:42;;;;;;;6.20;5.90;;;;;;;;;;5014843;28;20455;-58
2023/06/06 04:20:08;;;;;;;7.80;5.53;;;;;;;;;;5014297;28;20452;-59
2023/06/06 04:22:36;;;;;;;13.00;6.40;;;;;;;;;;5014429;28;20478;-59
2023/06/06 04:25:02;;;;;;;5.60;5.23;;;;;;;;;;5014296;28;20418;-59
2023/06/06 04:27:30;;;;;;;6.30;5.77;;;;;;;;;;5014416;28;20493;-59
2023/06/06 04:29:57;;;;;;;9.30;5.10;;;;;;;;;;5014274;28;20452;-58
2023/06/06 04:32:24;;;;;;;5.33;5.00;;;;;;;;;;5014231;28;20445;-58
2023/06/06 04:34:57;;;;;;;6.17;5.60;;;;;;;;;;5014287;28;20783;-58
2023/06/06 04:37:23;;;;;;;7.30;5.20;;;;;;;;;;5014146;28;20494;-58
2023/06/06 04:39:53;;;;;;;6.33;5.53;;;;;;;;;;5012583;28;20466;-58
2023/06/06 04:42:20;;;;;;;6.03;5.60;;;;;;;;;;5013774;28;20476;-59
2023/06/06 04:44:46;;;;;;;5.50;5.20;;;;;;;;;;5013924;28;20421;-58
2023/06/06 04:47:14;;;;;;;7.03;5.50;;;;;;;;;;5013732;28;20533;-59
2023/06/06 04:49:40;;;;;;;6.10;5.60;;;;;;;;;;5013827;28;20421;-58
2023/06/06 04:52:08;;;;;;;5.40;4.93;;;;;;;;;;5012656;28;20416;-59
2023/06/06 04:54:34;;;;;;;7.00;5.50;;;;;;;;;;5013525;28;21058;-59
2023/06/06 04:57:01;;;;;;;11.20;4.83;;;;;;;;;;5012325;28;20488;-58
2023/06/06 04:59:27;;;;;;;5.43;4.67;;;;;;;;;;5013715;28;20417;-58
2023/06/06 05:01:55;;;;;;;6.07;5.43;;;;;;;;;;5013402;28;20839;-58
2023/06/06 05:04:22;;;;;;;6.00;5.50;;;;;;;;;;5013581;28;20460;-58
2023/06/06 05:06:48;;;;;;;6.50;5.63;;;;;;;;;;5012070;28;20500;-58
2023/06/06 05:09:19;;;;;;;10.57;5.60;;;;;;;;;;5013152;28;20444;-59
2023/06/06 05:11:49;;;;;;;5.83;5.50;;;;;;;;;;5013629;28;20576;-58
2023/06/06 05:14:23;;;;;;;6.07;5.50;;;;;;;;;;5013112;28;20455;-58
2023/06/06 05:16:51;;;;;;;5.03;4.83;;;;;;;;;;5013331;28;20848;-59
2023/06/06 05:19:19;;;;;;;6.23;4.73;;;;;;;;;;5013391;28;20462;-59
2023/06/06 05:21:48;;;;;;;6.97;4.83;;;;;;;;;;5012926;28;20605;-58
2023/06/06 05:24:14;;;;;;;13.70;5.60;;;;;;;;;;5011650;28;20420;-58
2023/06/06 05:26:41;;;;;;;5.00;4.60;;;;;;;;;;5012835;28;20506;-59
2023/06/06 05:29:07;;;;;;;8.40;5.20;;;;;;;;;;5012896;28;20432;-59
2023/06/06 05:31:35;;;;;;;9.73;4.70;;;;;;;;;;5012703;28;20427;-59
2023/06/06 05:34:02;;;;;;;11.83;5.30;;;;;;;;;;5013546;28;20948;-58
2023/06/06 05:36:28;;;;;;;5.43;5.03;;;;;;;;;;5012840;28;20435;-59
2023/06/06 05:38:54;;;;;;;6.20;4.80;;;;;;;;;;5012973;28;20431;-57
2023/06/06 05:41:20;;;;;;;4.97;4.67;;;;;;;;;;5011957;28;20880;-59
2023/06/06 05:43:50;;;;;;;5.40;5.00;;;;;;;;;;5012914;28;20512;-59
2023/06/06 05:46:16;;;;;;;4.70;4.50;;;;;;;;;;5012787;28;20421;-58
2023/06/06 05:48:42;;;;;;;5.40;4.90;;;;;;;;;;5012666;28;20892;-59
2023/06/06 05:51:10;;;;;;;5.10;4.70;;;;;;;;;;5012518;28;20424;-58
2023/06/06 05:53:41;;;;;;;8.37;4.43;;;;;;;;;;5012750;28;21029;-59
2023/06/06 05:56:07;;;;;;;4.70;4.30;;;;;;;;;;5012613;28;20421;-59
2023/06/06 05:58:38;;;;;;;5.00;4.60;;;;;;;;;;5012605;28;20436;-58
2023/06/06 06:01:05;;;;;;;9.17;5.10;;;;;;;;;;5012722;28;20973;-58
2023/06/06 06:03:32;;;;;;;5.93;5.13;;;;;;;;;;5012372;28;20439;-58
2023/06/06 06:06:05;;;;;;;6.00;4.53;;;;;;;;;;5012472;28;20896;-58
2023/06/06 06:08:34;;;;;;;5.60;4.80;;;;;;;;;;5012410;28;20847;-59
2023/06/06 06:11:00;;;;;;;4.40;4.10;;;;;;;;;;5012430;28;20916;-59
2023/06/06 06:13:26;;;;;;;4.70;4.30;;;;;;;;;;5012551;28;20433;-59
2023/06/06 06:15:52;;;;;;;13.70;4.10;;;;;;;;;;5012490;28;20468;-59
2023/06/06 06:18:18;;;;;;;4.73;4.43;;;;;;;;;;5012322;28;20487;-59
2023/06/06 06:20:44;;;;;;;5.03;4.77;;;;;;;;;;5012545;28;20412;-58
2023/06/06 06:23:10;;;;;;;4.50;4.10;;;;;;;;;;5012799;28;20866;-58
2023/06/06 06:25:39;;;;;;;6.23;4.83;;;;;;;;;;5012558;28;20425;-58
2023/06/06 06:28:05;;;;;;;4.30;4.10;;;;;;;;;;5012704;28;20454;-58
2023/06/06 06:30:33;;;;;;;5.70;5.13;;;;;;;;;;5012300;28;20425;-57
2023/06/06 06:33:00;;;;;;;5.60;5.20;;;;;;;;;;5012125;28;20443;-59
2023/06/06 06:35:26;;;;;;;5.67;5.23;;;;;;;;;;5012111;28;20472;-59
2023/06/06 06:37:52;;;;;;;5.33;4.90;;;;;;;;;;5012366;28;20480;-58
2023/06/06 06:40:18;;;;;;;5.93;5.53;;;;;;;;;;5012173;28;20925;-59
2023/06/06 06:42:44;;;;;;;4.83;4.50;;;;;;;;;;5012371;28;20481;-59
2023/06/06 06:45:14;;;;;;;4.90;4.70;;;;;;;;;;5012178;28;20417;-59
2023/06/06 06:47:41;;;;;;;5.80;5.40;;;;;;;;;;5012789;28;20464;-58
2023/06/06 06:50:10;;;;;;;6.43;5.83;;;;;;;;;;5012346;28;20432;-59
2023/06/06 06:52:38;;;;;;;7.63;5.40;;;;;;;;;;5012275;28;20443;-58
2023/06/06 06:55:05;;;;;;;15.70;9.20;;;;;;;;;;5012204;28;20418;-59
2023/06/06 06:57:33;;;;;;;7.53;6.83;;;;;;;;;;5012103;28;20442;-59
2023/06/06 07:00:00;;;;;;;5.00;4.57;;;;;;;;;;5012103;28;20476;-59
2023/06/06 07:02:28;;;;;;;9.03;5.50;;;;;;;;;;5011797;28;20880;-58
2023/06/06 07:04:59;;;;;;;7.50;5.57;;;;;;;;;;5012028;28;20409;-59
2023/06/06 07:07:27;;;;;;;11.43;4.97;;;;;;;;;;5012473;28;20786;-58
2023/06/06 07:09:53;;;;;;;5.93;5.50;;;;;;;;;;5011925;28;20498;-59
2023/06/06 07:12:20;;;;;;;5.70;5.23;;;;;;;;;;5011701;28;20559;-59
2023/06/06 07:14:46;;;;;;;12.03;5.07;;;;;;;;;;5013973;28;20466;-59
2023/06/06 07:17:15;;;;;;;11.20;7.23;;;;;;;;;;5015482;28;20410;-59
2023/06/06 07:19:42;;;;;;;7.00;6.30;;;;;;;;;;5015230;28;20421;-59
2023/06/06 07:22:09;;;;;;;10.30;8.50;;;;;;;;;;5014858;28;20468;-59
2023/06/06 07:24:35;;;;;;;6.17;5.77;;;;;;;;;;5015248;28;20477;-59
2023/06/06 07:27:02;;;;;;;36.23;21.13;;;;;;;;;;5015616;28;20453;-59
2023/06/06 07:29:29;;;;;;;28.90;18.40;;;;;;;;;;5015753;28;20416;-59
2023/06/06 07:31:57;;;;;;;22.03;12.50;;;;;;;;;;5014821;28;20502;-58
2023/06/06 07:34:23;;;;;;;7.07;6.47;;;;;;;;;;5015471;28;20561;-58
2023/06/06 07:36:49;;;;;;;34.30;10.30;;;;;;;;;;5015880;28;20452;-58
2023/06/06 07:39:15;;;;;;;9.83;8.07;;;;;;;;;;5015269;28;20458;-58
2023/06/06 07:41:45;;;;;;;5.50;5.07;;;;;;;;;;5015064;28;20470;-58
2023/06/06 07:44:11;;;;;;;6.00;5.30;;;;;;;;;;5014659;28;20465;-58
2023/06/06 07:46:37;;;;;;;11.27;5.10;;;;;;;;;;5015115;28;20965;-58
2023/06/06 07:49:03;;;;;;;11.17;5.10;;;;;;;;;;5015135;28;20459;-58
2023/06/06 07:51:29;;;;;;;5.10;4.60;;;;;;;;;;5014620;28;20437;-58
2023/06/06 07:53:58;;;;;;;7.40;4.80;;;;;;;;;;5014755;28;20919;-58
2023/06/06 07:56:24;;;;;;;6.83;4.93;;;;;;;;;;5014849;28;20425;-59
2023/06/06 07:58:54;;;;;;;5.17;4.87;;;;;;;;;;5014248;28;20513;-58
2023/06/06 08:01:23;;;;;;;5.60;5.30;;;;;;;;;;5014746;28;20457;-58
2023/06/06 08:03:50;;;;;;;10.10;5.30;;;;;;;;;;5013499;28;20419;-58
2023/06/06 08:06:18;;;;;;;5.03;4.53;;;;;;;;;;5014490;28;20418;-58
2023/06/06 08:08:48;;;;;;;9.10;5.07;;;;;;;;;;5014507;28;20438;-59
2023/06/06 08:11:17;;;;;;;6.10;5.20;;;;;;;;;;5014495;28;20865;-59
2023/06/06 08:13:43;;;;;;;5.90;5.50;;;;;;;;;;5014480;28;20470;-59
2023/06/06 08:16:09;;;;;;;7.20;5.60;;;;;;;;;;5014804;28;20434;-58
2023/06/06 08:18:36;;;;;;;15.57;5.17;;;;;;;;;;5014238;28;20449;-58
2023/06/06 08:21:02;;;;;;;6.00;5.40;;;;;;;;;;5014317;28;20426;-58
2023/06/06 08:23:28;;;;;;;6.27;5.80;;;;;;;;;;5014222;28;20805;-58
2023/06/06 08:25:57;;;;;;;4.87;4.63;;;;;;;;;;5013936;28;20442;-58
2023/06/06 08:28:23;;;;;;;6.03;5.43;;;;;;;;;;5014165;28;20597;-58
2023/06/06 08:30:52;;;;;;;6.23;5.63;;;;;;;;;;5013917;28;20452;-58
2023/06/06 08:33:18;;;;;;;5.63;5.20;;;;;;;;;;5013998;28;20410;-58
2023/06/06 08:35:44;;;;;;;7.97;5.17;;;;;;;;;;5014060;28;20442;-58
2023/06/06 08:38:11;;;;;;;5.40;5.00;;;;;;;;;;5014020;28;20410;-59
2023/06/06 08:40:39;;;;;;;5.47;5.17;;;;;;;;;;5014025;28;20475;-58
2023/06/06 08:43:10;;;;;;;5.50;5.00;;;;;;;;;;5013828;28;20571;-59
2023/06/06 08:45:37;;;;;;;6.20;5.70;;;;;;;;;;5014126;28;20890;-59
2023/06/06 08:48:04;;;;;;;6.27;5.73;;;;;;;;;;5013470;28;20420;-59
2023/06/06 08:50:30;;;;;;;5.90;5.50;;;;;;;;;;5013087;28;20794;-59
2023/06/06 08:52:56;;;;;;;9.43;5.57;;;;;;;;;;5013641;28;20428;-59
2023/06/06 08:55:22;;;;;;;6.40;5.50;;;;;;;;;;5012350;28;20426;-59
2023/06/06 08:57:49;;;;;;;5.60;5.10;;;;;;;;;;5012389;28;20427;-59
2023/06/06 09:00:21;;;;;;;8.23;5.57;;;;;;;;;;5013761;28;20531;-59
2023/06/06 09:02:51;;;;;;;6.33;5.13;;;;;;;;;;5013354;28;20549;-59
2023/06/06 09:05:19;;;;;;;5.43;5.03;;;;;;;;;;5013199;28;20415;-59
2023/06/06 09:07:47;;;;;;;6.07;5.40;;;;;;;;;;5013651;28;20506;-59
2023/06/06 09:10:13;;;;;;;5.47;4.97;;;;;;;;;;5013554;28;20415;-58
2023/06/06 09:12:40;;;;;;;5.57;5.10;;;;;;;;;;5013138;28;20429;-58
2023/06/06 09:15:07;;;;;;;5.70;5.30;;;;;;;;;;5013388;28;20446;-59
2023/06/06 09:17:40;;;;;;;5.87;5.27;;;;;;;;;;5013549;28;20453;-59
2023/06/06 09:20:07;;;;;;;5.77;5.40;;;;;;;;;;5013376;28;20414;-59
2023/06/06 09:22:46;;;;;;;5.30;5.10;;;;;;;;;;5013197;28;20935;-59
2023/06/06 09:25:23;;;;;;;4.90;4.80;;;;;;;;;;5013303;28;20522;-59
2023/06/06 09:27:53;;;;;;;6.13;5.57;;;;;;;;;;5013071;28;20409;-59
2023/06/06 09:30:21;;;;;;;5.17;4.93;;;;;;;;;;5012902;28;20420;-59
2023/06/06 09:32:51;;;;;;;5.33;5.03;;;;;;;;;;5011792;28;20433;-59
2023/06/06 09:35:17;;;;;;;5.57;5.07;;;;;;;;;;5012936;28;20919;-59
2023/06/06 09:37:43;;;;;;;5.80;5.00;;;;;;;;;;5012191;28;20453;-59
2023/06/06 09:40:16;;;;;;;5.07;4.70;;;;;;;;;;5012742;28;20478;-60
2023/06/06 09:42:43;;;;;;;6.80;5.63;;;;;;;;;;5012766;28;20837;-58
2023/06/06 09:45:19;;;;;;;4.63;4.43;;;;;;;;;;5012938;28;20529;-58
2023/06/06 09:47:46;;;;;;;9.33;5.37;;;;;;;;;;5011424;28;20423;-59
2023/06/06 09:50:13;;;;;;;12.70;5.33;;;;;;;;;;5012789;28;20494;-59
2023/06/06 09:52:39;;;;;;;5.60;5.10;;;;;;;;;;5012827;28;20903;-59
2023/06/06 09:55:16;;;;;;;4.70;4.57;;;;;;;;;;5012635;28;20417;-59
2023/06/06 09:57:44;;;;;;;5.67;5.47;;;;;;;;;;5012689;28;20419;-59
2023/06/06 10:00:14;;;;;;;7.10;5.30;;;;;;;;;;5013388;28;20913;-59
2023/06/06 10:02:42;;;;;;;5.20;4.80;;;;;;;;;;5013921;28;20999;-61
2023/06/06 10:05:11;;;;;;;6.33;5.40;;;;;;;;;;5013973;28;20490;-60
2023/06/06 10:07:38;;;;;;;5.60;5.30;;;;;;;;;;5012622;28;20414;-59
2023/06/06 10:10:05;;;;;;;5.37;5.00;;;;;;;;;;5013114;28;20844;-59
2023/06/06 10:12:31;;;;;;;5.23;4.93;;;;;;;;;;5012203;28;20449;-58
2023/06/06 10:14:58;;;;;;;4.70;4.40;;;;;;;;;;5012558;28;20491;-59
2023/06/06 10:17:24;;;;;;;5.63;4.07;;;;;;;;;;5012280;28;20417;-59
2023/06/06 10:19:52;;;;;;;5.27;4.90;;;;;;;;;;5012893;28;20477;-59
2023/06/06 10:22:18;;;;;;;7.23;4.43;;;;;;;;;;5012564;28;21041;-59
2023/06/06 10:24:47;;;;;;;7.97;5.47;;;;;;;;;;5012316;28;20550;-59
2023/06/06 10:27:13;;;;;;;4.60;4.20;;;;;;;;;;5012206;28;20420;-58
2023/06/06 10:29:38;;;;;;;4.67;4.47;;;;;;;;;;5012402;28;20422;-59
2023/06/06 10:32:12;;;;;;;5.07;4.60;;;;;;;;;;5012441;28;20459;-58
2023/06/06 10:34:41;;;;;;;7.13;5.00;;;;;;;;;;5012395;28;20444;-59
2023/06/06 10:37:16;;;;;;;4.47;4.27;;;;;;;;;;5011888;28;20922;-59
2023/06/06 10:39:48;;;;;;;4.23;4.03;;;;;;;;;;5012487;28;20474;-60
2023/06/06 10:42:15;;;;;;;5.07;4.80;;;;;;;;;;5011850;28;20487;-59
2023/06/06 10:44:44;;;;;;;5.87;4.67;;;;;;;;;;5012656;28;20875;-59
2023/06/06 10:47:36;;;;;;;4.10;3.80;;;;;;;;;;5012752;28;20436;-58
2023/06/06 10:50:11;;;;;;;3.67;3.57;;;;;;;;;;5012179;28;20515;-58
2023/06/06 10:52:43;;;;;;;4.57;4.47;;;;;;;;;;5015774;28;20906;-58
2023/06/06 10:55:31;;;;;;;4.30;3.90;;;;;;;;;;5015595;28;20446;-58
2023/06/06 10:58:03;;;;;;;4.40;3.70;;;;;;;;;;5015686;28;20952;-58
2023/06/06 11:00:32;;;;;;;3.63;3.53;;;;;;;;;;5015751;28;20425;-59
2023/06/06 11:02:58;;;;;;;3.73;3.63;;;;;;;;;;5015855;28;20467;-58
2023/06/06 11:05:24;;;;;;;3.93;3.70;;;;;;;;;;5015256;28;20904;-58
2023/06/06 11:07:51;;;;;;;7.67;3.50;;;;;;;;;;5014679;28;20459;-59
2023/06/06 11:10:24;;;;;;;3.73;3.53;;;;;;;;;;5015619;28;20485;-58
2023/06/06 11:12:50;;;;;;;25.33;4.00;;;;;;;;;;5015483;28;20957;-58
2023/06/06 11:15:32;;;;;;;4.23;3.93;;;;;;;;;;5015801;28;20439;-58
2023/06/06 11:18:03;;;;;;;4.33;3.90;;;;;;;;;;5015230;28;20923;-59
2023/06/06 11:20:38;;;;;;;4.27;3.50;;;;;;;;;;5014233;28;20527;-59
2023/06/06 11:23:05;;;;;;;3.33;3.13;;;;;;;;;;5016161;28;20554;-59
2023/06/06 11:25:35;;;;;;;3.40;3.30;;;;;;;;;;5020262;28;20934;-59
2023/06/06 11:28:01;;;;;;;4.00;3.70;;;;;;;;;;5020400;28;20504;-58
2023/06/06 11:30:33;;;;;;;3.53;3.27;;;;;;;;;;5022764;28;20437;-59
2023/06/06 11:33:01;;;;;;;3.50;3.30;;;;;;;;;;5021479;28;20425;-58
2023/06/06 11:35:32;;;;;;;3.67;3.57;;;;;;;;;;5018827;28;20437;-59
2023/06/06 11:38:01;;;;;;;3.60;3.37;;;;;;;;;;5020682;28;20420;-59
2023/06/06 11:40:27;;;;;;;3.50;3.40;;;;;;;;;;5018846;28;20451;-59
2023/06/06 11:42:53;;;;;;;3.37;3.20;;;;;;;;;;5015098;28;20466;-59
2023/06/06 11:45:20;;;;;;;2.97;2.80;;;;;;;;;;5013903;28;20421;-58
2023/06/06 11:47:46;;;;;;;4.67;2.70;;;;;;;;;;5015055;28;20444;-58
2023/06/06 11:50:12;;;;;;;3.93;3.73;;;;;;;;;;5014064;28;20447;-59
2023/06/06 11:52:48;;;;;;;3.30;3.00;;;;;;;;;;5014911;28;20927;-59
2023/06/06 11:55:15;;;;;;;2.90;2.70;;;;;;;;;;5014716;28;20538;-59
2023/06/06 11:57:41;;;;;;;3.20;3.10;;;;;;;;;;5014642;28;20511;-59
2023/06/06 12:00:16;;;;;;;3.47;3.37;;;;;;;;;;5014326;28;20419;-59
2023/06/06 12:02:42;;;;;;;3.40;3.20;;;;;;;;;;5014975;28;20467;-59
2023/06/06 12:05:17;;;;;;;3.53;3.43;;;;;;;;;;5014880;28;20404;-59
2023/06/06 12:07:43;;;;;;;3.30;3.20;;;;;;;;;;5014517;28;20881;-59
2023/06/06 12:10:09;;;;;;;3.30;3.20;;;;;;;;;;5014788;28;20483;-59
2023/06/06 12:12:50;;;;;;;3.67;3.47;;;;;;;;;;5014452;28;20433;-59
2023/06/06 12:15:18;;;;;;;3.37;3.07;;;;;;;;;;5014563;28;20989;-59
2023/06/06 12:17:44;;;;;;;3.77;3.57;;;;;;;;;;5013184;28;20437;-59
2023/06/06 12:20:10;;;;;;;3.17;2.90;;;;;;;;;;5014096;28;20421;-59
2023/06/06 12:22:39;;;;;;;3.47;3.20;;;;;;;;;;5014320;28;20513;-59
2023/06/06 12:25:05;;;;;;;3.07;2.97;;;;;;;;;;5014027;28;20959;-59
2023/06/06 12:27:36;;;;;;;3.07;2.77;;;;;;;;;;5014654;28;20783;-59
2023/06/06 12:30:02;;;;;;;3.70;3.60;;;;;;;;;;5014306;28;20416;-58
2023/06/06 12:32:31;;;;;;;3.47;3.27;;;;;;;;;;5013085;28;20463;-59
2023/06/06 12:35:05;;;;;;;5.33;3.23;;;;;;;;;;5013985;28;20433;-59
2023/06/06 12:37:37;;;;;;;6.30;3.37;;;;;;;;;;5013994;28;20470;-59
2023/06/06 12:40:09;;;;;;;3.30;3.20;;;;;;;;;;5014176;28;20413;-59
2023/06/06 12:42:35;;;;;;;3.37;3.17;;;;;;;;;;5013975;28;20465;-59
2023/06/06 12:45:04;;;;;;;3.33;3.27;;;;;;;;;;5014044;28;20931;-59
2023/06/06 12:47:30;;;;;;;3.10;3.00;;;;;;;;;;5014053;28;20412;-59
2023/06/06 12:49:56;;;;;;;8.80;3.30;;;;;;;;;;5013479;28;20416;-59
2023/06/06 12:52:22;;;;;;;5.90;2.80;;;;;;;;;;5013858;28;20479;-59
2023/06/06 12:54:48;;;;;;;3.27;3.13;;;;;;;;;;5013707;28;20412;-59
2023/06/06 12:57:15;;;;;;;3.93;3.73;;;;;;;;;;5013719;28;20421;-59
2023/06/06 12:59:42;;;;;;;3.20;3.10;;;;;;;;;;5013855;28;20437;-59
2023/06/06 13:02:09;;;;;;;3.67;3.43;;;;;;;;;;5013336;28;21018;-58
2023/06/06 13:04:36;;;;;;;3.10;3.03;;;;;;;;;;5013330;28;20416;-59
2023/06/06 13:07:02;;;;;;;2.90;2.80;;;;;;;;;;5013481;28;20464;-58
2023/06/06 13:09:29;;;;;;;3.27;3.17;;;;;;;;;;5012289;28;20452;-59
2023/06/06 13:11:55;;;;;;;3.33;3.13;;;;;;;;;;5012685;28;20440;-59
2023/06/06 13:14:21;;;;;;;4.03;3.53;;;;;;;;;;5013588;28;20475;-59
2023/06/06 13:16:51;;;;;;;3.30;3.20;;;;;;;;;;5013295;28;20441;-59
2023/06/06 13:19:17;;;;;;;3.47;3.37;;;;;;;;;;5013369;28;20420;-59
2023/06/06 13:21:46;;;;;;;3.87;3.67;;;;;;;;;;5011774;28;20472;-59
2023/06/06 13:24:17;;;;;;;3.10;3.00;;;;;;;;;;5013298;28;20508;-59
2023/06/06 13:26:43;;;;;;;3.37;3.23;;;;;;;;;;5012827;28;20443;-58
2023/06/06 13:29:10;;;;;;;3.73;3.63;;;;;;;;;;5013078;28;20417;-59
2023/06/06 13:31:37;;;;;;;3.10;3.10;;;;;;;;;;5013110;28;20759;-59
2023/06/06 13:34:04;;;;;;;3.47;3.33;;;;;;;;;;5012842;28;20549;-59
2023/06/06 13:36:30;;;;;;;3.20;3.10;;;;;;;;;;5011829;28;20448;-59
2023/06/06 13:38:56;;;;;;;3.37;3.20;;;;;;;;;;5013059;28;20892;-59
2023/06/06 13:41:22;;;;;;;3.17;3.07;;;;;;;;;;5011481;28;20862;-58
2023/06/06 13:43:50;;;;;;;4.00;3.33;;;;;;;;;;5012902;28;20405;-59
2023/06/06 13:46:18;;;;;;;3.20;3.10;;;;;;;;;;5012809;28;20424;-59
2023/06/06 13:48:44;;;;;;;3.40;3.30;;;;;;;;;;5012851;28;20781;-58
2023/06/06 13:51:11;;;;;;;5.23;4.90;;;;;;;;;;5012997;28;20512;-58
2023/06/06 13:53:37;;;;;;;6.30;5.70;;;;;;;;;;5012312;28;20415;-59
2023/06/06 13:56:03;;;;;;;5.30;5.00;;;;;;;;;;5012698;28;20811;-59
2023/06/06 13:58:37;;;;;;;3.03;2.93;;;;;;;;;;5012670;28;20932;-59
2023/06/06 14:01:05;;;;;;;3.60;3.30;;;;;;;;;;5013062;28;20498;-59
2023/06/06 14:03:32;;;;;;;4.10;3.20;;;;;;;;;;5012652;28;20415;-59
2023/06/06 14:05:58;;;;;;;3.93;3.60;;;;;;;;;;5012480;28;20547;-59
2023/06/06 14:08:24;;;;;;;3.60;3.30;;;;;;;;;;5012785;28;20456;-59
2023/06/06 14:10:50;;;;;;;3.30;3.20;;;;;;;;;;5012581;28;20506;-59
2023/06/06 14:13:16;;;;;;;3.53;3.23;;;;;;;;;;5012811;28;20440;-58
2023/06/06 14:15:42;;;;;;;6.83;2.90;;;;;;;;;;5012668;28;20428;-59
2023/06/06 14:18:08;;;;;;;4.37;3.97;;;;;;;;;;5012101;28;20801;-58
2023/06/06 14:20:48;;;;;;;3.67;3.43;;;;;;;;;;5011286;28;20421;-59
2023/06/06 14:23:15;;;;;;;3.33;3.23;;;;;;;;;;5013978;28;20606;-59
2023/06/06 14:25:45;;;;;;;3.53;3.40;;;;;;;;;;5015324;28;20460;-58
2023/06/06 14:28:11;;;;;;;4.00;3.60;;;;;;;;;;5016528;28;20408;-58
2023/06/06 14:30:37;;;;;;;3.70;3.20;;;;;;;;;;5016231;28;20828;-58
2023/06/06 14:33:06;;;;;;;5.93;3.47;;;;;;;;;;5015964;28;20462;-59
2023/06/06 14:35:34;;;;;;;2.80;2.70;;;;;;;;;;5016153;28;20797;-59
2023/06/06 14:38:00;;;;;;;3.10;3.00;;;;;;;;;;5014796;28;20519;-59
2023/06/06 14:40:26;;;;;;;5.53;3.80;;;;;;;;;;5016174;28;20532;-58
2023/06/06 14:42:52;;;;;;;3.73;3.63;;;;;;;;;;5016166;28;20522;-58
2023/06/06 14:45:18;;;;;;;3.67;3.57;;;;;;;;;;5015944;28;20419;-58